ADDS METAR Data INFO
IDs: Format: Raw Decoded Include TAF

Data at: 0350 UTC 19 Jul 2018

KBOI 190257Z 33006KT 10SM CLR 33/M02 A2995 RMK AO2 T03281022
KBOI 190253Z 33006KT 10SM CLR 33/M02 A2995 RMK AO2 SLP107 T03331022 56008
KBOI 190153Z 34009KT 10SM CLR 36/M03 A2996 RMK AO2 SLP108 T03561033
KBOI 190053Z 35012KT 10SM CLR 36/M02 A2996 RMK AO2 SLP111 T03611022
KBOI 182353Z 34011KT 10SM CLR 37/01 A2998 RMK AO2 SLP117 T03670006 10367 20317 56019
KBOI 182253Z 33010KT 10SM CLR 36/02 A2999 RMK AO2 SLP120 T03610017
KBOI 182153Z 32014G18KT 10SM CLR 36/01 A3002 RMK AO2 SLP128 T03560011
KBOI 182053Z 33013G19KT 10SM CLR 36/M02 A3004 RMK AO2 SLP136 T03561022 58010
KBOI 181953Z 32010KT 10SM CLR 34/03 A3006 RMK AO2 SLP142 T03390033
KBOI 181853Z 29008KT 10SM CLR 33/06 A3007 RMK AO2 SLP146 T03280056
KBOI 181753Z VRB04KT 10SM CLR 32/07 A3007 RMK AO2 SLP148 T03170072 10317 20200 58003
KBOI 181653Z 14003KT 10SM CLR 30/07 A3008 RMK AO2 SLP151 T03000067
KBOI 181553Z 06003KT 10SM CLR 28/07 A3009 RMK AO2 SLP154 T02780072
KBOI 181453Z 09004KT 10SM CLR 26/07 A3008 RMK AO2 SLP151 T02560067 53015
KBOI 181353Z 12007KT 10SM CLR 23/06 A3007 RMK AO2 SLP146 T02280061
KBOI 181253Z 13006KT 10SM CLR 21/06 A3005 RMK AO2 SLP140 T02060056
KBOI 181153Z 19005KT 10SM CLR 20/06 A3004 RMK AO2 SLP136 T02000056 10267 20200 53017
KBOI 181053Z 12005KT 10SM CLR 23/07 A3002 RMK AO2 SLP127 T02280067
KBOI 180953Z 13011KT 10SM CLR 24/05 A3000 RMK AO2 SLP123 T02390050
KBOI 180853Z 15014KT 10SM CLR 24/05 A2998 RMK AO2 SLP116 T02440050 53002
KBOI 180753Z 12007KT 10SM CLR 26/05 A2998 RMK AO2 SLP115 T02560050
KBOI 180653Z 14007KT 10SM CLR 26/05 A2998 RMK AO2 SLP115 T02610050 403720172
KBOI 180553Z 14007KT 10SM CLR 27/04 A2998 RMK AO2 SLP115 T02670044 10367 20267 50001
KBOI 180453Z 14006KT 10SM CLR 27/03 A2998 RMK AO2 SLP117 T02670028
KBOI 180353Z 09005KT 10SM CLR 31/05 A2998 RMK AO2 SLP115 T03110050
KBOI 180253Z 03003KT 10SM CLR 34/03 A2997 RMK AO2 SLP114 T03440028 56008
KBOI 180153Z 01005KT 10SM CLR 36/02 A2997 RMK AO2 SLP115 T03560022
KBOI 180053Z 35008KT 10SM CLR 37/03 A2998 RMK AO2 SLP119 T03670033
KBOI 172353Z 35012G16KT 10SM CLR 37/04 A3000 RMK AO2 SLP124 T03670039 10372 20300 57020
KBOI 172253Z 36011G16KT 10SM CLR 37/04 A3002 RMK AO2 SLP130 T03670039
KBOI 172153Z 33007G18KT 280V010 10SM CLR 36/03 A3004 RMK AO2 SLP139 T03560033
KBOI 172053Z 33006KT 10SM CLR 35/06 A3006 RMK AO2 SLP146 T03500056 58012
KBOI 171953Z VRB03KT 10SM CLR 33/08 A3008 RMK AO2 SLP153 T03330083
KBOI 171853Z AUTO VRB03KT 10SM CLR 32/09 A3009 RMK AO2 SLP159 T03170089
KBOI 171753Z 00000KT 10SM CLR 30/09 A3010 RMK AO2 SLP162 T03000089 10311 20172 58001
KBOI 171653Z VRB03KT 10SM CLR 29/10 A3011 RMK AO2 SLP163 T02890100
KBOI 171553Z 07003KT 10SM CLR 27/10 A3011 RMK AO2 SLP165 T02720100